createdAt,value
2016-03-08T00:00:01.919Z,1003.46
2016-03-08T00:01:01.969Z,1003.52
2016-03-08T00:02:02.019Z,1003.5
2016-03-08T00:03:02.083Z,1003.49
2016-03-08T00:04:02.118Z,1003.52
2016-03-08T00:05:02.167Z,1003.54
2016-03-08T00:06:02.217Z,1003.49
2016-03-08T00:07:02.267Z,1003.52
2016-03-08T00:08:02.316Z,1003.54
2016-03-08T00:09:02.366Z,1003.56
2016-03-08T00:10:02.415Z,1003.57
2016-03-08T00:11:02.464Z,1003.56
2016-03-08T00:12:02.514Z,1003.57
2016-03-08T00:13:02.564Z,1003.6
2016-03-08T00:14:02.613Z,1003.56
2016-03-08T00:15:02.647Z,1003.56
2016-03-08T00:16:02.712Z,1003.57
2016-03-08T00:17:02.747Z,1003.55
2016-03-08T00:18:02.812Z,1003.57
2016-03-08T00:19:02.860Z,1003.56
2016-03-08T00:20:02.895Z,1003.58
2016-03-08T00:21:02.960Z,1003.56
2016-03-08T00:22:03.010Z,1003.6
2016-03-08T00:23:03.044Z,1003.55
2016-03-08T00:24:03.093Z,1003.58
2016-03-08T00:25:03.158Z,1003.57
2016-03-08T00:26:03.193Z,1003.57
2016-03-08T00:27:03.242Z,1003.59
2016-03-08T00:28:03.291Z,1003.6
2016-03-08T00:29:03.342Z,1003.59
2016-03-08T00:30:03.406Z,1003.6
2016-03-08T00:31:03.440Z,1003.65
2016-03-08T00:32:03.490Z,1003.64
2016-03-08T00:33:03.539Z,1003.66
2016-03-08T00:34:03.589Z,1003.69
2016-03-08T00:35:03.639Z,1003.72
2016-03-08T00:36:03.688Z,1003.7
2016-03-08T00:37:03.753Z,1003.73
2016-03-08T00:38:03.787Z,1003.8
2016-03-08T00:39:03.837Z,1003.77
2016-03-08T00:40:03.886Z,1003.81
2016-03-08T00:41:03.936Z,1003.8
2016-03-08T00:42:03.985Z,1003.78
2016-03-08T00:43:04.035Z,1003.82
2016-03-08T00:44:04.085Z,1003.78
2016-03-08T00:45:04.134Z,1003.81
2016-03-08T00:46:04.183Z,1003.79
2016-03-08T00:47:04.232Z,1003.81
2016-03-08T00:48:04.283Z,1003.8
2016-03-08T00:49:04.332Z,1003.8
2016-03-08T00:50:04.382Z,1003.8
2016-03-08T00:51:04.432Z,1003.82
2016-03-08T00:52:04.481Z,1003.81
2016-03-08T00:53:04.531Z,1003.89
2016-03-08T00:54:04.580Z,1003.84
2016-03-08T00:55:04.629Z,1003.87
2016-03-08T00:56:04.679Z,1003.88
2016-03-08T00:57:04.729Z,1003.88
2016-03-08T00:58:04.778Z,1003.92
2016-03-08T00:59:04.813Z,1003.88
2016-03-08T01:00:04.878Z,1003.9
2016-03-08T01:01:04.912Z,1003.96
2016-03-08T01:02:04.961Z,1003.96
2016-03-08T01:03:05.026Z,1003.93
2016-03-08T01:04:05.061Z,1003.96
2016-03-08T01:05:05.109Z,1003.97
2016-03-08T01:06:05.159Z,1003.97
2016-03-08T01:07:05.209Z,1004.01
2016-03-08T01:08:05.258Z,1003.97
2016-03-08T01:09:05.308Z,1003.99
2016-03-08T01:10:05.351Z,1003.99
2016-03-08T01:11:05.388Z,1003.99
2016-03-08T01:12:05.426Z,1003.96
2016-03-08T01:13:05.462Z,1003.98
2016-03-08T01:14:05.499Z,1003.99
2016-03-08T01:15:05.541Z,1003.99
2016-03-08T01:16:05.587Z,1003.96
2016-03-08T01:17:05.633Z,1003.96
2016-03-08T01:18:05.678Z,1003.96
2016-03-08T01:19:05.723Z,1003.98
2016-03-08T01:20:05.770Z,1003.95
2016-03-08T01:21:05.818Z,1003.94
2016-03-08T01:22:05.866Z,1003.96
2016-03-08T01:23:05.914Z,1003.97
2016-03-08T01:24:05.961Z,1003.95
2016-03-08T01:25:06.011Z,1003.94
2016-03-08T01:26:06.059Z,1003.98
2016-03-08T01:27:06.109Z,1003.94
2016-03-08T01:28:06.157Z,1003.95
2016-03-08T01:29:06.205Z,1003.97
2016-03-08T01:30:06.239Z,1003.96
2016-03-08T01:31:06.304Z,1003.98
2016-03-08T01:32:06.353Z,1003.97
2016-03-08T01:33:06.386Z,1003.95
2016-03-08T01:34:06.452Z,1003.96
2016-03-08T01:35:06.501Z,1003.98
2016-03-08T01:36:06.534Z,1003.95
2016-03-08T01:37:06.585Z,1003.98
2016-03-08T01:38:06.634Z,1003.95
2016-03-08T01:39:06.698Z,1003.96
2016-03-08T01:40:06.733Z,1003.95
2016-03-08T01:41:06.782Z,1003.98
2016-03-08T01:42:06.832Z,1003.96
2016-03-08T01:43:06.881Z,1004.02
2016-03-08T01:44:06.931Z,1003.97
2016-03-08T01:45:06.981Z,1004.02
2016-03-08T01:46:07.031Z,1004.01
2016-03-08T01:47:07.080Z,1004.06
2016-03-08T01:48:07.129Z,1004.1
2016-03-08T01:49:07.178Z,1004.05
2016-03-08T01:50:07.229Z,1004.09
2016-03-08T01:51:07.278Z,1004.05
2016-03-08T01:52:07.327Z,1004.05
2016-03-08T01:53:07.377Z,1004.05
2016-03-08T01:54:07.427Z,1004.07
2016-03-08T01:55:07.476Z,1004.05
2016-03-08T01:56:07.526Z,1004.04
2016-03-08T01:57:07.575Z,1004.04
2016-03-08T01:58:07.624Z,1004.05
2016-03-08T01:59:07.675Z,1004.01
2016-03-08T02:00:07.724Z,1004.06
2016-03-08T02:01:07.774Z,1004.12
2016-03-08T02:02:07.823Z,1004.09
2016-03-08T02:03:07.857Z,1004.1
2016-03-08T02:04:07.922Z,1004.1
2016-03-08T02:05:07.957Z,1004.1
2016-03-08T02:06:08.007Z,1004.1
2016-03-08T02:07:08.055Z,1004.15
2016-03-08T02:08:08.104Z,1004.14
2016-03-08T02:09:08.155Z,1004.19
2016-03-08T02:10:08.204Z,1004.2
2016-03-08T02:11:08.253Z,1004.17
2016-03-08T02:12:08.304Z,1004.18
2016-03-08T02:13:08.353Z,1004.22
2016-03-08T02:14:08.403Z,1004.21
2016-03-08T02:15:08.452Z,1004.24
2016-03-08T02:16:08.501Z,1004.28
2016-03-08T02:17:08.551Z,1004.24
2016-03-08T02:18:08.617Z,1004.22
2016-03-08T02:19:08.666Z,1004.24
2016-03-08T02:20:08.700Z,1004.22
2016-03-08T02:21:08.749Z,1004.25
2016-03-08T02:22:08.799Z,1004.27
2016-03-08T02:23:08.848Z,1004.25
2016-03-08T02:24:08.898Z,1004.26
2016-03-08T02:25:08.947Z,1004.26
2016-03-08T02:26:08.997Z,1004.25
2016-03-08T02:27:09.047Z,1004.26
2016-03-08T02:28:09.096Z,1004.31
2016-03-08T02:29:09.146Z,1004.3
2016-03-08T02:30:09.195Z,1004.31
2016-03-08T02:31:09.245Z,1004.33
2016-03-08T02:32:09.294Z,1004.33
2016-03-08T02:33:09.329Z,1004.32
2016-03-08T02:34:09.378Z,1004.34
2016-03-08T02:35:09.443Z,1004.34
2016-03-08T02:36:09.477Z,1004.35
2016-03-08T02:37:09.527Z,1004.37
2016-03-08T02:38:09.577Z,1004.38
2016-03-08T02:39:09.626Z,1004.36
2016-03-08T02:40:09.675Z,1004.39
2016-03-08T02:41:09.726Z,1004.4
2016-03-08T02:42:09.774Z,1004.39
2016-03-08T02:43:09.824Z,1004.37
2016-03-08T02:44:09.874Z,1004.39
2016-03-08T02:45:09.923Z,1004.42
2016-03-08T02:46:09.972Z,1004.39
2016-03-08T02:47:10.023Z,1004.42
2016-03-08T02:48:10.072Z,1004.43
2016-03-08T02:49:10.122Z,1004.44
2016-03-08T02:50:10.171Z,1004.42
2016-03-08T02:51:10.220Z,1004.42
2016-03-08T02:52:10.270Z,1004.47
2016-03-08T02:53:10.320Z,1004.46
2016-03-08T02:54:10.369Z,1004.49
2016-03-08T02:55:10.419Z,1004.54
2016-03-08T02:56:10.468Z,1004.56
2016-03-08T02:57:10.519Z,1004.56
2016-03-08T02:58:10.552Z,1004.6
2016-03-08T02:59:10.616Z,1004.6
2016-03-08T03:00:10.651Z,1004.58
2016-03-08T03:01:10.700Z,1004.62
2016-03-08T03:02:10.766Z,1004.63
2016-03-08T03:03:10.800Z,1004.67
2016-03-08T03:04:10.849Z,1004.67
2016-03-08T03:05:10.899Z,1004.69
2016-03-08T03:06:10.949Z,1004.63
2016-03-08T03:07:10.999Z,1004.7
2016-03-08T03:08:11.048Z,1004.68
2016-03-08T03:09:11.096Z,1004.67
2016-03-08T03:10:11.147Z,1004.69
2016-03-08T03:11:11.196Z,1004.66
2016-03-08T03:12:11.246Z,1004.69
2016-03-08T03:13:11.296Z,1004.69
2016-03-08T03:14:11.345Z,1004.7
2016-03-08T03:15:11.394Z,1004.7
2016-03-08T03:16:11.445Z,1004.66
2016-03-08T03:17:11.493Z,1004.67
2016-03-08T03:18:11.543Z,1004.69
2016-03-08T03:19:11.592Z,1004.73
2016-03-08T03:20:11.642Z,1004.71
2016-03-08T03:21:11.692Z,1004.72
2016-03-08T03:22:11.742Z,1004.71
2016-03-08T03:23:11.792Z,1004.69
2016-03-08T03:24:11.841Z,1004.71
2016-03-08T03:25:11.874Z,1004.67
2016-03-08T03:26:11.925Z,1004.68
2016-03-08T03:27:11.989Z,1004.7
2016-03-08T03:28:12.023Z,1004.73
2016-03-08T03:29:12.072Z,1004.72
2016-03-08T03:30:12.122Z,1004.68
2016-03-08T03:31:12.172Z,1004.71
2016-03-08T03:32:12.222Z,1004.71
2016-03-08T03:33:12.272Z,1004.71
2016-03-08T03:34:12.336Z,1004.71
2016-03-08T03:35:12.370Z,1004.74
2016-03-08T03:36:12.420Z,1004.72
2016-03-08T03:37:12.469Z,1004.71
2016-03-08T03:38:12.518Z,1004.71
2016-03-08T03:39:12.568Z,1004.74
2016-03-08T03:40:12.618Z,1004.75
2016-03-08T03:41:12.667Z,1004.77
2016-03-08T03:42:12.718Z,1004.72
2016-03-08T03:43:12.767Z,1004.73
2016-03-08T03:44:12.816Z,1004.81
2016-03-08T03:45:12.865Z,1004.75
2016-03-08T03:46:12.915Z,1004.73
2016-03-08T03:47:12.949Z,1004.75
2016-03-08T03:48:13.014Z,1004.73
2016-03-08T03:49:13.048Z,1004.73
2016-03-08T03:50:13.098Z,1004.74
2016-03-08T03:51:13.147Z,1004.74
2016-03-08T03:52:13.198Z,1004.73
2016-03-08T03:53:13.247Z,1004.69
2016-03-08T03:54:13.297Z,1004.72
2016-03-08T03:55:13.346Z,1004.77
2016-03-08T03:56:13.395Z,1004.73
2016-03-08T03:57:13.445Z,1004.73
2016-03-08T03:58:13.494Z,1004.8
2016-03-08T03:59:13.544Z,1004.78
2016-03-08T04:00:13.594Z,1004.85
2016-03-08T04:01:13.643Z,1004.8
2016-03-08T04:02:13.694Z,1004.82
2016-03-08T04:03:13.742Z,1004.82
2016-03-08T04:04:13.791Z,1004.86
2016-03-08T04:05:13.841Z,1004.9
2016-03-08T04:06:13.891Z,1004.86
2016-03-08T04:07:13.935Z,1004.86
2016-03-08T04:08:13.984Z,1004.89
2016-03-08T04:09:14.034Z,1004.9
2016-03-08T04:10:14.084Z,1004.91
2016-03-08T04:11:14.133Z,1004.96
2016-03-08T04:12:14.182Z,1004.99
2016-03-08T04:13:14.232Z,1004.97
2016-03-08T04:14:14.281Z,1004.98
2016-03-08T04:15:14.348Z,1005.02
2016-03-08T04:16:14.381Z,1005.06
2016-03-08T04:17:14.431Z,1005.05
2016-03-08T04:18:14.480Z,1005.06
2016-03-08T04:19:14.530Z,1005.08
2016-03-08T04:20:14.578Z,1005.09
2016-03-08T04:21:14.613Z,1005.07
2016-03-08T04:22:14.677Z,1005.11
2016-03-08T04:23:14.711Z,1005.11
2016-03-08T04:24:14.761Z,1005.13
2016-03-08T04:25:14.811Z,1005.17
2016-03-08T04:26:14.861Z,1005.2
2016-03-08T04:27:14.910Z,1005.18
2016-03-08T04:28:14.960Z,1005.19
2016-03-08T04:29:15.025Z,1005.19
2016-03-08T04:30:15.074Z,1005.2
2016-03-08T04:31:15.108Z,1005.17
2016-03-08T04:32:15.157Z,1005.19
2016-03-08T04:33:15.208Z,1005.21
2016-03-08T04:34:15.257Z,1005.24
2016-03-08T04:35:15.307Z,1005.24
2016-03-08T04:36:15.388Z,1005.23
2016-03-08T04:37:15.406Z,1005.21
2016-03-08T04:38:15.456Z,1005.25
2016-03-08T04:39:15.505Z,1005.23
2016-03-08T04:40:15.554Z,1005.23
2016-03-08T04:41:15.604Z,1005.21
2016-03-08T04:42:15.653Z,1005.23
2016-03-08T04:43:15.688Z,1005.19
2016-03-08T04:44:15.753Z,1005.21
2016-03-08T04:45:15.787Z,1005.24
2016-03-08T04:46:15.837Z,1005.27
2016-03-08T04:47:15.901Z,1005.25
2016-03-08T04:48:15.936Z,1005.29
2016-03-08T04:49:15.986Z,1005.33
2016-03-08T04:50:16.035Z,1005.3
2016-03-08T04:51:16.084Z,1005.3
2016-03-08T04:52:16.133Z,1005.35
2016-03-08T04:53:16.183Z,1005.37
2016-03-08T04:54:16.233Z,1005.39
2016-03-08T04:55:16.282Z,1005.41
2016-03-08T04:56:16.333Z,1005.42
2016-03-08T04:57:16.382Z,1005.36
2016-03-08T04:58:16.430Z,1005.37
2016-03-08T04:59:16.480Z,1005.41
2016-03-08T05:00:16.530Z,1005.41
2016-03-08T05:01:16.580Z,1005.42
2016-03-08T05:02:16.629Z,1005.44
2016-03-08T05:03:16.679Z,1005.49
2016-03-08T05:04:16.713Z,1005.47
2016-03-08T05:05:16.762Z,1005.47
2016-03-08T05:06:16.813Z,1005.5
2016-03-08T05:07:16.862Z,1005.51
2016-03-08T05:08:16.912Z,1005.51
2016-03-08T05:09:16.960Z,1005.53
2016-03-08T05:10:17.010Z,1005.54
2016-03-08T05:11:17.076Z,1005.55
2016-03-08T05:12:17.109Z,1005.57
2016-03-08T05:13:17.159Z,1005.61
2016-03-08T05:14:17.209Z,1005.56
2016-03-08T05:15:17.258Z,1005.6
2016-03-08T05:16:17.309Z,1005.61
2016-03-08T05:17:17.357Z,1005.59
2016-03-08T05:18:17.407Z,1005.57
2016-03-08T05:19:17.456Z,1005.59
2016-03-08T05:20:17.506Z,1005.61
2016-03-08T05:21:17.555Z,1005.64
2016-03-08T05:22:17.605Z,1005.64
2016-03-08T05:23:17.654Z,1005.69
2016-03-08T05:24:17.689Z,1005.69
2016-03-08T05:25:17.738Z,1005.71
2016-03-08T05:26:17.803Z,1005.67
2016-03-08T05:27:17.838Z,1005.64
2016-03-08T05:28:17.886Z,1005.7
2016-03-08T05:29:17.936Z,1005.69
2016-03-08T05:30:17.985Z,1005.74
2016-03-08T05:31:18.036Z,1005.72
2016-03-08T05:32:18.085Z,1005.77
2016-03-08T05:33:18.134Z,1005.79
2016-03-08T05:34:18.193Z,1005.8
2016-03-08T05:35:18.224Z,1005.76
2016-03-08T05:36:18.258Z,1005.82
2016-03-08T05:37:18.393Z,1005.82
2016-03-08T05:38:18.777Z,1005.87
2016-03-08T05:39:18.424Z,1005.84
2016-03-08T05:40:18.458Z,1005.86
2016-03-08T05:41:18.507Z,1005.87
2016-03-08T05:42:18.556Z,1005.82
2016-03-08T05:43:18.607Z,1005.82
2016-03-08T05:44:18.656Z,1005.92
2016-03-08T05:45:18.706Z,1005.9
2016-03-08T05:46:18.756Z,1005.92
2016-03-08T05:47:18.805Z,1005.92
2016-03-08T05:48:18.855Z,1005.98
2016-03-08T05:49:18.911Z,1005.98
2016-03-08T05:50:18.945Z,1006
2016-03-08T05:51:18.994Z,1006
2016-03-08T05:52:19.044Z,1006.05
2016-03-08T05:53:19.094Z,1006.07
2016-03-08T05:54:19.143Z,1006
2016-03-08T05:55:19.208Z,1006.02
2016-03-08T05:56:19.243Z,1006.05
2016-03-08T05:57:19.292Z,1006.04
2016-03-08T05:58:19.341Z,1006.07
2016-03-08T05:59:19.391Z,1006.05
2016-03-08T06:00:19.440Z,1006.13
2016-03-08T06:01:19.490Z,1006.12
2016-03-08T06:02:19.539Z,1006.13
2016-03-08T06:03:19.590Z,1006.13
2016-03-08T06:04:19.639Z,1006.16
2016-03-08T06:05:19.673Z,1006.17
2016-03-08T06:06:19.727Z,1006.22
2016-03-08T06:07:19.762Z,1006.24
2016-03-08T06:08:19.811Z,1006.25
2016-03-08T06:09:19.860Z,1006.27
2016-03-08T06:10:19.910Z,1006.26
2016-03-08T06:11:20.381Z,1006.26
2016-03-08T06:12:20.009Z,1006.31
2016-03-08T06:13:20.074Z,1006.28
2016-03-08T06:14:20.108Z,1006.33
2016-03-08T06:15:20.158Z,1006.32
2016-03-08T06:16:20.207Z,1006.35
2016-03-08T06:17:20.258Z,1006.36
2016-03-08T06:18:20.307Z,1006.38
2016-03-08T06:19:20.356Z,1006.4
2016-03-08T06:20:20.405Z,1006.34
2016-03-08T06:21:20.455Z,1006.38
2016-03-08T06:22:20.505Z,1006.41
2016-03-08T06:23:20.554Z,1006.44
2016-03-08T06:24:20.588Z,1006.44
2016-03-08T06:25:20.638Z,1006.48
2016-03-08T06:26:20.688Z,1006.49
2016-03-08T06:27:20.737Z,1006.48
2016-03-08T06:28:20.787Z,1006.48
2016-03-08T06:29:20.836Z,1006.48
2016-03-08T06:30:20.885Z,1006.49
2016-03-08T06:31:20.934Z,1006.5
2016-03-08T06:32:20.985Z,1006.55
2016-03-08T06:33:21.034Z,1006.52
2016-03-08T06:34:21.084Z,1006.56
2016-03-08T06:35:21.133Z,1006.57
2016-03-08T06:36:21.183Z,1006.56
2016-03-08T06:37:21.233Z,1006.57
2016-03-08T06:38:21.281Z,1006.56
2016-03-08T06:39:21.332Z,1006.56
2016-03-08T06:40:21.381Z,1006.59
2016-03-08T06:41:21.430Z,1006.59
2016-03-08T06:42:21.480Z,1006.58
2016-03-08T06:43:21.514Z,1006.58
2016-03-08T06:44:21.564Z,1006.6
2016-03-08T06:45:21.613Z,1006.61
2016-03-08T06:46:21.663Z,1006.66
2016-03-08T06:47:21.713Z,1006.64
2016-03-08T06:48:21.762Z,1006.67
2016-03-08T06:49:21.812Z,1006.66
2016-03-08T06:50:21.861Z,1006.65
2016-03-08T06:51:21.911Z,1006.69
2016-03-08T06:52:21.960Z,1006.69
2016-03-08T06:53:22.010Z,1006.7
2016-03-08T06:54:22.060Z,1006.68
2016-03-08T06:55:22.109Z,1006.68
2016-03-08T06:56:22.205Z,1006.71
2016-03-08T06:57:22.193Z,1006.71
2016-03-08T06:58:22.258Z,1006.71
2016-03-08T06:59:22.292Z,1006.7
2016-03-08T07:00:22.341Z,1006.78
2016-03-08T07:01:22.407Z,1006.74
2016-03-08T07:02:22.440Z,1006.75
2016-03-08T07:03:22.489Z,1006.79
2016-03-08T07:04:22.540Z,1006.75
2016-03-08T07:05:22.589Z,1006.78
2016-03-08T07:06:22.638Z,1006.76
2016-03-08T07:07:22.703Z,1006.75
2016-03-08T07:08:22.737Z,1006.79
2016-03-08T07:09:22.787Z,1006.76
2016-03-08T07:10:22.837Z,1006.84
2016-03-08T07:11:22.887Z,1006.86
2016-03-08T07:12:22.936Z,1006.81
2016-03-08T07:13:22.985Z,1006.84
2016-03-08T07:14:23.035Z,1006.83
2016-03-08T07:15:23.085Z,1006.86
2016-03-08T07:16:23.134Z,1006.83
2016-03-08T07:17:23.183Z,1006.88
2016-03-08T07:18:23.233Z,1006.86
2016-03-08T07:19:23.267Z,1006.87
2016-03-08T07:20:23.316Z,1006.87
2016-03-08T07:21:23.367Z,1006.84
2016-03-08T07:22:23.416Z,1006.88
2016-03-08T07:23:23.466Z,1006.89
2016-03-08T07:24:23.530Z,1006.85
2016-03-08T07:25:23.565Z,1006.86
2016-03-08T07:26:23.615Z,1006.87
2016-03-08T07:27:23.663Z,1006.89
2016-03-08T07:28:23.713Z,1006.87
2016-03-08T07:29:23.763Z,1006.88
2016-03-08T07:30:23.812Z,1006.86
2016-03-08T07:31:23.862Z,1006.88
2016-03-08T07:32:23.912Z,1006.88
2016-03-08T07:33:23.962Z,1006.95
2016-03-08T07:34:24.011Z,1006.99
2016-03-08T07:35:24.045Z,1007
2016-03-08T07:36:24.110Z,1007.01
2016-03-08T07:37:24.144Z,1006.99
2016-03-08T07:38:24.192Z,1007.07
2016-03-08T07:39:24.242Z,1007.02
2016-03-08T07:40:24.292Z,1007.13
2016-03-08T07:41:24.342Z,1007.14
2016-03-08T07:42:24.392Z,1007.17
2016-03-08T07:43:24.442Z,1007.18
2016-03-08T07:44:24.491Z,1007.17
2016-03-08T07:45:24.540Z,1007.18
2016-03-08T07:46:24.590Z,1007.21
2016-03-08T07:47:24.639Z,1007.25
2016-03-08T07:48:24.689Z,1007.25
2016-03-08T07:49:24.738Z,1007.27
2016-03-08T07:50:24.772Z,1007.28
2016-03-08T07:51:24.822Z,1007.29
2016-03-08T07:52:24.887Z,1007.27
2016-03-08T07:53:24.922Z,1007.31
2016-03-08T07:54:24.971Z,1007.34
2016-03-08T07:55:25.021Z,1007.33
2016-03-08T07:56:25.070Z,1007.3
2016-03-08T07:57:25.135Z,1007.33
2016-03-08T07:58:25.169Z,1007.35
2016-03-08T07:59:25.216Z,1007.34
2016-03-08T08:00:25.266Z,1007.36
2016-03-08T08:01:25.316Z,1007.4
2016-03-08T08:02:25.365Z,1007.39
2016-03-08T08:03:25.415Z,1007.41
2016-03-08T08:04:25.465Z,1007.41
2016-03-08T08:05:25.514Z,1007.42
2016-03-08T08:06:25.563Z,1007.45
2016-03-08T08:07:25.613Z,1007.45
2016-03-08T08:08:25.663Z,1007.46
2016-03-08T08:09:25.696Z,1007.45
2016-03-08T08:10:25.762Z,1007.46
2016-03-08T08:11:25.796Z,1007.47
2016-03-08T08:12:25.845Z,1007.48
2016-03-08T08:13:25.894Z,1007.49
2016-03-08T08:14:25.945Z,1007.52
2016-03-08T08:15:25.994Z,1007.52
2016-03-08T08:16:26.044Z,1007.48
2016-03-08T08:17:26.093Z,1007.5
2016-03-08T08:18:26.142Z,1007.54
2016-03-08T08:19:26.208Z,1007.53
2016-03-08T08:20:26.241Z,1007.53
2016-03-08T08:21:26.292Z,1007.53
2016-03-08T08:22:26.341Z,1007.54
2016-03-08T08:23:26.390Z,1007.57
2016-03-08T08:24:26.424Z,1007.61
2016-03-08T08:25:26.474Z,1007.58
2016-03-08T08:26:26.524Z,1007.6
2016-03-08T08:27:26.574Z,1007.63
2016-03-08T08:28:26.622Z,1007.65
2016-03-08T08:29:26.672Z,1007.64
2016-03-08T08:30:26.722Z,1007.66
2016-03-08T08:31:26.771Z,1007.68
2016-03-08T08:32:26.821Z,1007.65
2016-03-08T08:33:26.855Z,1007.66
2016-03-08T08:34:26.920Z,1007.68
2016-03-08T08:35:26.954Z,1007.74
2016-03-08T08:36:27.004Z,1007.69
2016-03-08T08:37:27.068Z,1007.74
2016-03-08T08:38:27.103Z,1007.73
2016-03-08T08:39:27.152Z,1007.74
2016-03-08T08:40:27.202Z,1007.73
2016-03-08T08:41:27.252Z,1007.74
2016-03-08T08:42:27.301Z,1007.74
2016-03-08T08:43:27.335Z,1007.74
2016-03-08T08:44:27.384Z,1007.74
2016-03-08T08:45:27.434Z,1007.74
2016-03-08T08:46:27.483Z,1007.73
2016-03-08T08:47:27.533Z,1007.75
2016-03-08T08:48:27.583Z,1007.73
2016-03-08T08:49:27.632Z,1007.76
2016-03-08T08:50:27.666Z,1007.75
2016-03-08T08:51:27.716Z,1007.79
2016-03-08T08:52:27.781Z,1007.75
2016-03-08T08:53:27.814Z,1007.78
2016-03-08T08:54:27.864Z,1007.77
2016-03-08T08:55:27.914Z,1007.77
2016-03-08T08:56:27.964Z,1007.75
2016-03-08T08:57:28.013Z,1007.76
2016-03-08T08:58:28.047Z,1007.77
2016-03-08T08:59:28.097Z,1007.78
2016-03-08T09:00:28.146Z,1007.8
2016-03-08T09:01:28.196Z,1007.78
2016-03-08T09:02:28.246Z,1007.78
2016-03-08T09:03:28.295Z,1007.78
2016-03-08T09:04:28.344Z,1007.78
2016-03-08T09:05:28.393Z,1007.78
2016-03-08T09:06:28.444Z,1007.81
2016-03-08T09:07:28.477Z,1007.78
2016-03-08T09:08:28.527Z,1007.86
2016-03-08T09:09:28.577Z,1007.87
2016-03-08T09:10:28.626Z,1007.79
2016-03-08T09:11:28.676Z,1007.78
2016-03-08T09:12:28.726Z,1007.83
2016-03-08T09:13:28.766Z,1007.81
2016-03-08T09:14:28.816Z,1007.82
2016-03-08T09:15:28.866Z,1007.8
2016-03-08T09:16:28.900Z,1007.86
2016-03-08T09:17:28.949Z,1007.82
2016-03-08T09:18:28.998Z,1007.83
2016-03-08T09:19:29.048Z,1007.82
2016-03-08T09:20:29.097Z,1007.83
2016-03-08T09:21:29.147Z,1007.82
2016-03-08T09:22:29.197Z,1007.82
2016-03-08T09:23:29.230Z,1007.86
2016-03-08T09:24:29.280Z,1007.86
2016-03-08T09:25:29.346Z,1007.9
2016-03-08T09:26:29.380Z,1007.94
2016-03-08T09:27:29.429Z,1007.91
2016-03-08T09:28:29.479Z,1007.96
2016-03-08T09:29:29.529Z,1008.03
2016-03-08T09:30:29.562Z,1007.94
2016-03-08T09:31:29.612Z,1007.96
2016-03-08T09:32:29.661Z,1007.95
2016-03-08T09:33:29.710Z,1007.97
2016-03-08T09:34:29.759Z,1007.99
2016-03-08T09:35:29.810Z,1008.03
2016-03-08T09:36:29.859Z,1008.01
2016-03-08T09:37:29.908Z,1008.04
2016-03-08T09:38:29.958Z,1008.03
2016-03-08T09:39:29.992Z,1008.04
2016-03-08T09:40:30.042Z,1008.06
2016-03-08T09:41:30.092Z,1008.1
2016-03-08T09:42:30.141Z,1008.1
2016-03-08T09:43:30.191Z,1008.05
2016-03-08T09:44:30.239Z,1008.08
2016-03-08T09:45:30.290Z,1008.09
2016-03-08T09:46:30.339Z,1008.11
2016-03-08T09:47:30.388Z,1008.1
2016-03-08T09:48:30.423Z,1008.12
2016-03-08T09:49:30.472Z,1008.16
2016-03-08T09:50:30.522Z,1008.19
2016-03-08T09:51:30.572Z,1008.13
2016-03-08T09:52:30.621Z,1008.15
2016-03-08T09:53:30.671Z,1008.14
2016-03-08T09:54:30.766Z,1008.17
2016-03-08T09:55:30.769Z,1008.15
2016-03-08T09:56:30.819Z,1008.14
2016-03-08T09:57:30.868Z,1008.19
2016-03-08T09:58:30.902Z,1008.15
2016-03-08T09:59:30.952Z,1008.18
2016-03-08T10:00:31.002Z,1008.16
2016-03-08T10:01:31.051Z,1008.11
2016-03-08T10:02:31.101Z,1008.14
2016-03-08T10:03:31.150Z,1008.14
2016-03-08T10:04:31.201Z,1008.17
2016-03-08T10:05:31.250Z,1008.19
2016-03-08T10:06:31.299Z,1008.21
2016-03-08T10:07:31.350Z,1008.17
2016-03-08T10:08:31.399Z,1008.23
2016-03-08T10:09:31.433Z,1008.22
2016-03-08T10:10:31.483Z,1008.23
2016-03-08T10:11:31.532Z,1008.23
2016-03-08T10:12:31.582Z,1008.23
2016-03-08T10:13:31.632Z,1008.22
2016-03-08T10:14:31.681Z,1008.23
2016-03-08T10:15:31.731Z,1008.3
2016-03-08T10:16:31.774Z,1008.28
2016-03-08T10:17:31.814Z,1008.25
2016-03-08T10:18:31.853Z,1008.23
2016-03-08T10:19:31.893Z,1008.22
2016-03-08T10:20:31.933Z,1008.22
2016-03-08T10:21:31.976Z,1008.19
2016-03-08T10:22:32.007Z,1008.23
2016-03-08T10:23:32.053Z,1008.23
2016-03-08T10:24:32.098Z,1008.24
2016-03-08T10:25:32.145Z,1008.24
2016-03-08T10:26:32.193Z,1008.33
2016-03-08T10:27:32.241Z,1008.3
2016-03-08T10:28:32.289Z,1008.32
2016-03-08T10:29:32.338Z,1008.27
2016-03-08T10:30:32.386Z,1008.23
2016-03-08T10:31:32.435Z,1008.26
2016-03-08T10:32:32.484Z,1008.29
2016-03-08T10:33:32.533Z,1008.3
2016-03-08T10:34:32.582Z,1008.26
2016-03-08T10:35:32.632Z,1008.24
2016-03-08T10:36:32.665Z,1008.24
2016-03-08T10:37:32.715Z,1008.26
2016-03-08T10:38:32.764Z,1008.28
2016-03-08T10:39:32.812Z,1008.28
2016-03-08T10:40:32.861Z,1008.28
2016-03-08T10:41:32.911Z,1008.3
2016-03-08T10:42:32.961Z,1008.31
2016-03-08T10:43:33.010Z,1008.4
2016-03-08T10:44:33.060Z,1008.31
2016-03-08T10:45:33.110Z,1008.34
2016-03-08T10:46:33.159Z,1008.35
2016-03-08T10:47:33.209Z,1008.35
2016-03-08T10:48:33.258Z,1008.32
2016-03-08T10:49:33.307Z,1008.33
2016-03-08T10:50:33.358Z,1008.35
2016-03-08T10:51:33.391Z,1008.33
2016-03-08T10:52:33.456Z,1008.3
2016-03-08T10:53:33.491Z,1008.31
2016-03-08T10:54:33.540Z,1008.33
2016-03-08T10:55:33.590Z,1008.33
2016-03-08T10:56:33.640Z,1008.32
2016-03-08T10:57:33.689Z,1008.39
2016-03-08T10:58:33.737Z,1008.36
2016-03-08T10:59:33.788Z,1008.35
2016-03-08T11:00:33.837Z,1008.37
2016-03-08T11:01:33.886Z,1008.36
2016-03-08T11:02:33.937Z,1008.32
2016-03-08T11:03:33.986Z,1008.37
2016-03-08T11:04:34.036Z,1008.35
2016-03-08T11:05:34.086Z,1008.34
2016-03-08T11:06:34.119Z,1008.34
2016-03-08T11:07:34.184Z,1008.36
2016-03-08T11:08:34.234Z,1008.36
2016-03-08T11:09:34.267Z,1008.38
2016-03-08T11:10:34.333Z,1008.36
2016-03-08T11:11:34.367Z,1008.37
2016-03-08T11:12:34.416Z,1008.37
2016-03-08T11:13:34.467Z,1008.45
2016-03-08T11:14:34.516Z,1008.4
2016-03-08T11:15:34.565Z,1008.39
2016-03-08T11:16:34.616Z,1008.48
2016-03-08T11:17:34.664Z,1008.45
2016-03-08T11:18:34.713Z,1008.45
2016-03-08T11:19:34.763Z,1008.46
2016-03-08T11:20:34.813Z,1008.47
2016-03-08T11:21:34.863Z,1008.48
2016-03-08T11:22:34.912Z,1008.4
2016-03-08T11:23:34.962Z,1008.49
2016-03-08T11:24:34.995Z,1008.48
2016-03-08T11:25:35.060Z,1008.48
2016-03-08T11:26:35.095Z,1008.45
2016-03-08T11:27:35.159Z,1008.48
2016-03-08T11:28:35.194Z,1008.48
2016-03-08T11:29:35.243Z,1008.44
2016-03-08T11:30:35.293Z,1008.5
2016-03-08T11:31:35.343Z,1008.46
2016-03-08T11:32:35.392Z,1008.55
2016-03-08T11:33:35.442Z,1008.51
2016-03-08T11:34:35.492Z,1008.45
2016-03-08T11:35:35.541Z,1008.49
2016-03-08T11:36:35.590Z,1008.46
2016-03-08T11:37:35.639Z,1008.48
2016-03-08T11:38:35.690Z,1008.49
2016-03-08T11:39:35.739Z,1008.49
2016-03-08T11:40:35.788Z,1008.52
2016-03-08T11:41:35.839Z,1008.5
2016-03-08T11:42:35.888Z,1008.55
2016-03-08T11:43:35.921Z,1008.58
2016-03-08T11:44:35.987Z,1008.51
2016-03-08T11:45:36.037Z,1008.55
2016-03-08T11:46:36.071Z,1008.53
2016-03-08T11:47:36.120Z,1008.56
2016-03-08T11:48:36.170Z,1008.55
2016-03-08T11:49:36.219Z,1008.58
2016-03-08T11:50:36.268Z,1008.61
2016-03-08T11:51:36.318Z,1008.59
2016-03-08T11:52:36.368Z,1008.56
2016-03-08T11:53:36.417Z,1008.57
2016-03-08T11:54:36.467Z,1008.62
2016-03-08T11:55:36.516Z,1008.61
2016-03-08T11:56:36.566Z,1008.58
2016-03-08T11:57:36.615Z,1008.61
2016-03-08T11:58:36.665Z,1008.54
2016-03-08T11:59:36.715Z,1008.61
2016-03-08T12:00:36.764Z,1008.58
2016-03-08T12:01:36.815Z,1008.58
2016-03-08T12:02:36.848Z,1008.61
2016-03-08T12:03:36.912Z,1008.62
2016-03-08T12:04:36.948Z,1008.61
2016-03-08T12:05:37.043Z,1008.53
2016-03-08T12:06:37.047Z,1008.59
2016-03-08T12:07:37.097Z,1008.62
2016-03-08T12:08:37.147Z,1008.61